sensor_id;sensor_type;location;lat;lon;timestamp;P1;durP1;ratioP1;P2;durP2;ratioP2
2998;SDS011;1509;51.964;7.628;2024-01-06T00:01:23;11.87;;;7.43;;
2998;SDS011;1509;51.964;7.628;2024-01-06T00:03:49;12.00;;;8.00;;
2998;SDS011;1509;51.964;7.628;2024-01-06T00:06:14;11.13;;;6.17;;
2998;SDS011;1509;51.964;7.628;2024-01-06T00:08:40;11.40;;;7.93;;
2998;SDS011;1509;51.964;7.628;2024-01-06T00:11:05;12.37;;;8.00;;
2998;SDS011;1509;51.964;7.628;2024-01-06T00:13:31;11.60;;;7.67;;
2998;SDS011;1509;51.964;7.628;2024-01-06T00:15:57;10.07;;;6.47;;
2998;SDS011;1509;51.964;7.628;2024-01-06T00:18:22;10.17;;;5.83;;
2998;SDS011;1509;51.964;7.628;2024-01-06T00:20:48;13.93;;;7.70;;
2998;SDS011;1509;51.964;7.628;2024-01-06T00:23:13;11.77;;;7.90;;
2998;SDS011;1509;51.964;7.628;2024-01-06T00:25:39;12.90;;;9.03;;
2998;SDS011;1509;51.964;7.628;2024-01-06T00:28:05;10.27;;;6.73;;
2998;SDS011;1509;51.964;7.628;2024-01-06T00:30:30;13.47;;;7.90;;
2998;SDS011;1509;51.964;7.628;2024-01-06T00:32:56;14.20;;;7.97;;
2998;SDS011;1509;51.964;7.628;2024-01-06T00:35:21;11.73;;;7.50;;
2998;SDS011;1509;51.964;7.628;2024-01-06T00:37:47;9.07;;;6.77;;
2998;SDS011;1509;51.964;7.628;2024-01-06T00:40:13;14.63;;;7.57;;
2998;SDS011;1509;51.964;7.628;2024-01-06T00:42:38;16.53;;;8.37;;
2998;SDS011;1509;51.964;7.628;2024-01-06T00:45:04;12.40;;;7.50;;
2998;SDS011;1509;51.964;7.628;2024-01-06T00:47:30;14.10;;;8.07;;
2998;SDS011;1509;51.964;7.628;2024-01-06T00:49:56;13.20;;;7.40;;
2998;SDS011;1509;51.964;7.628;2024-01-06T00:52:22;12.93;;;7.40;;
2998;SDS011;1509;51.964;7.628;2024-01-06T00:54:47;15.80;;;8.20;;
2998;SDS011;1509;51.964;7.628;2024-01-06T00:57:13;11.87;;;8.57;;
2998;SDS011;1509;51.964;7.628;2024-01-06T00:59:38;13.07;;;8.17;;
2998;SDS011;1509;51.964;7.628;2024-01-06T01:02:10;12.83;;;8.03;;
2998;SDS011;1509;51.964;7.628;2024-01-06T01:04:35;15.90;;;9.13;;
2998;SDS011;1509;51.964;7.628;2024-01-06T01:07:01;13.37;;;8.43;;
2998;SDS011;1509;51.964;7.628;2024-01-06T01:09:26;11.70;;;7.10;;
2998;SDS011;1509;51.964;7.628;2024-01-06T01:11:52;14.40;;;8.10;;
2998;SDS011;1509;51.964;7.628;2024-01-06T01:14:20;13.67;;;9.03;;
2998;SDS011;1509;51.964;7.628;2024-01-06T01:16:46;14.03;;;8.20;;
2998;SDS011;1509;51.964;7.628;2024-01-06T01:19:12;17.53;;;9.37;;
2998;SDS011;1509;51.964;7.628;2024-01-06T01:21:40;13.50;;;9.07;;
2998;SDS011;1509;51.964;7.628;2024-01-06T01:24:05;15.37;;;7.80;;
2998;SDS011;1509;51.964;7.628;2024-01-06T01:26:31;13.67;;;8.07;;
2998;SDS011;1509;51.964;7.628;2024-01-06T01:28:56;14.43;;;8.20;;
2998;SDS011;1509;51.964;7.628;2024-01-06T01:31:22;13.90;;;8.03;;
2998;SDS011;1509;51.964;7.628;2024-01-06T01:33:48;14.53;;;8.47;;
2998;SDS011;1509;51.964;7.628;2024-01-06T01:36:14;12.97;;;7.53;;
2998;SDS011;1509;51.964;7.628;2024-01-06T01:38:39;14.77;;;8.30;;
2998;SDS011;1509;51.964;7.628;2024-01-06T01:41:05;18.67;;;8.90;;
2998;SDS011;1509;51.964;7.628;2024-01-06T01:43:30;14.70;;;7.73;;
2998;SDS011;1509;51.964;7.628;2024-01-06T01:45:56;18.63;;;9.00;;
2998;SDS011;1509;51.964;7.628;2024-01-06T01:48:23;14.43;;;9.10;;
2998;SDS011;1509;51.964;7.628;2024-01-06T01:50:50;15.27;;;8.10;;
2998;SDS011;1509;51.964;7.628;2024-01-06T01:53:16;14.60;;;8.60;;
2998;SDS011;1509;51.964;7.628;2024-01-06T01:55:42;14.37;;;8.20;;
2998;SDS011;1509;51.964;7.628;2024-01-06T01:58:10;13.63;;;8.33;;
2998;SDS011;1509;51.964;7.628;2024-01-06T02:00:38;11.60;;;7.93;;
2998;SDS011;1509;51.964;7.628;2024-01-06T02:03:04;13.03;;;8.83;;
2998;SDS011;1509;51.964;7.628;2024-01-06T02:05:30;17.50;;;9.10;;
2998;SDS011;1509;51.964;7.628;2024-01-06T02:07:56;18.30;;;9.40;;
2998;SDS011;1509;51.964;7.628;2024-01-06T02:10:21;10.73;;;7.40;;
2998;SDS011;1509;51.964;7.628;2024-01-06T02:12:48;13.83;;;7.87;;
2998;SDS011;1509;51.964;7.628;2024-01-06T02:15:14;12.60;;;7.60;;
2998;SDS011;1509;51.964;7.628;2024-01-06T02:17:39;17.17;;;8.90;;
2998;SDS011;1509;51.964;7.628;2024-01-06T02:20:06;18.00;;;9.33;;
2998;SDS011;1509;51.964;7.628;2024-01-06T02:22:34;14.20;;;7.77;;
2998;SDS011;1509;51.964;7.628;2024-01-06T02:25:00;12.00;;;7.57;;
2998;SDS011;1509;51.964;7.628;2024-01-06T02:27:27;17.27;;;9.40;;
2998;SDS011;1509;51.964;7.628;2024-01-06T02:29:52;15.17;;;8.60;;
2998;SDS011;1509;51.964;7.628;2024-01-06T02:32:18;16.30;;;9.40;;
2998;SDS011;1509;51.964;7.628;2024-01-06T02:34:43;19.67;;;9.60;;
2998;SDS011;1509;51.964;7.628;2024-01-06T02:37:09;18.83;;;9.77;;
2998;SDS011;1509;51.964;7.628;2024-01-06T02:39:34;19.00;;;11.23;;
2998;SDS011;1509;51.964;7.628;2024-01-06T02:42:00;16.17;;;8.80;;
2998;SDS011;1509;51.964;7.628;2024-01-06T02:44:26;16.50;;;9.80;;
2998;SDS011;1509;51.964;7.628;2024-01-06T02:46:51;19.00;;;10.40;;
2998;SDS011;1509;51.964;7.628;2024-01-06T02:49:17;16.20;;;9.67;;
2998;SDS011;1509;51.964;7.628;2024-01-06T02:51:42;20.07;;;9.93;;
2998;SDS011;1509;51.964;7.628;2024-01-06T02:54:08;17.07;;;10.50;;
2998;SDS011;1509;51.964;7.628;2024-01-06T02:56:34;15.27;;;9.60;;
2998;SDS011;1509;51.964;7.628;2024-01-06T02:58:59;20.90;;;8.80;;
2998;SDS011;1509;51.964;7.628;2024-01-06T03:01:25;11.23;;;7.20;;
2998;SDS011;1509;51.964;7.628;2024-01-06T03:03:50;17.50;;;8.30;;
2998;SDS011;1509;51.964;7.628;2024-01-06T03:06:16;13.50;;;8.10;;
2998;SDS011;1509;51.964;7.628;2024-01-06T03:08:41;15.20;;;6.90;;
2998;SDS011;1509;51.964;7.628;2024-01-06T03:11:07;12.60;;;7.17;;
2998;SDS011;1509;51.964;7.628;2024-01-06T03:13:33;16.53;;;8.73;;
2998;SDS011;1509;51.964;7.628;2024-01-06T03:16:02;16.77;;;6.80;;
2998;SDS011;1509;51.964;7.628;2024-01-06T03:18:30;12.87;;;7.30;;
2998;SDS011;1509;51.964;7.628;2024-01-06T03:20:56;13.10;;;7.37;;
2998;SDS011;1509;51.964;7.628;2024-01-06T03:23:21;12.93;;;6.70;;
2998;SDS011;1509;51.964;7.628;2024-01-06T03:25:47;10.10;;;6.23;;
2998;SDS011;1509;51.964;7.628;2024-01-06T03:28:13;12.10;;;5.73;;
2998;SDS011;1509;51.964;7.628;2024-01-06T03:30:38;12.90;;;7.47;;
2998;SDS011;1509;51.964;7.628;2024-01-06T03:33:05;10.93;;;6.10;;
2998;SDS011;1509;51.964;7.628;2024-01-06T03:35:31;12.50;;;6.53;;
2998;SDS011;1509;51.964;7.628;2024-01-06T03:37:56;12.37;;;6.10;;
2998;SDS011;1509;51.964;7.628;2024-01-06T03:40:22;13.83;;;7.37;;
2998;SDS011;1509;51.964;7.628;2024-01-06T03:42:47;9.60;;;7.37;;
2998;SDS011;1509;51.964;7.628;2024-01-06T03:45:13;9.23;;;6.37;;
2998;SDS011;1509;51.964;7.628;2024-01-06T03:47:39;12.70;;;7.03;;
2998;SDS011;1509;51.964;7.628;2024-01-06T03:50:04;10.23;;;6.10;;
2998;SDS011;1509;51.964;7.628;2024-01-06T03:52:30;12.93;;;8.10;;
2998;SDS011;1509;51.964;7.628;2024-01-06T03:54:56;13.97;;;6.90;;
2998;SDS011;1509;51.964;7.628;2024-01-06T03:57:21;16.50;;;8.70;;
2998;SDS011;1509;51.964;7.628;2024-01-06T03:59:47;15.57;;;9.20;;
2998;SDS011;1509;51.964;7.628;2024-01-06T04:02:12;22.27;;;10.10;;
2998;SDS011;1509;51.964;7.628;2024-01-06T04:04:38;16.20;;;9.23;;
2998;SDS011;1509;51.964;7.628;2024-01-06T04:07:04;21.10;;;9.30;;
2998;SDS011;1509;51.964;7.628;2024-01-06T04:09:31;16.13;;;9.60;;
2998;SDS011;1509;51.964;7.628;2024-01-06T04:11:56;20.13;;;9.90;;
2998;SDS011;1509;51.964;7.628;2024-01-06T04:14:22;18.87;;;10.23;;
2998;SDS011;1509;51.964;7.628;2024-01-06T04:16:48;17.60;;;9.30;;
2998;SDS011;1509;51.964;7.628;2024-01-06T04:19:14;17.37;;;8.80;;
2998;SDS011;1509;51.964;7.628;2024-01-06T04:21:40;17.80;;;9.00;;
2998;SDS011;1509;51.964;7.628;2024-01-06T04:24:06;14.20;;;8.47;;
2998;SDS011;1509;51.964;7.628;2024-01-06T04:26:31;10.97;;;6.33;;
2998;SDS011;1509;51.964;7.628;2024-01-06T04:28:57;15.17;;;8.20;;
2998;SDS011;1509;51.964;7.628;2024-01-06T04:31:22;11.90;;;6.70;;
2998;SDS011;1509;51.964;7.628;2024-01-06T04:33:48;11.60;;;6.30;;
2998;SDS011;1509;51.964;7.628;2024-01-06T04:36:14;11.00;;;6.07;;
2998;SDS011;1509;51.964;7.628;2024-01-06T04:38:39;12.27;;;7.17;;
2998;SDS011;1509;51.964;7.628;2024-01-06T04:41:05;7.53;;;5.23;;
2998;SDS011;1509;51.964;7.628;2024-01-06T04:43:30;8.83;;;4.27;;
2998;SDS011;1509;51.964;7.628;2024-01-06T04:45:56;7.97;;;3.73;;
2998;SDS011;1509;51.964;7.628;2024-01-06T04:48:22;5.83;;;3.50;;
2998;SDS011;1509;51.964;7.628;2024-01-06T04:50:48;4.93;;;3.27;;
2998;SDS011;1509;51.964;7.628;2024-01-06T04:53:14;8.70;;;4.60;;
2998;SDS011;1509;51.964;7.628;2024-01-06T04:55:39;9.10;;;4.33;;
2998;SDS011;1509;51.964;7.628;2024-01-06T04:58:05;8.93;;;4.80;;
2998;SDS011;1509;51.964;7.628;2024-01-06T05:00:31;8.63;;;4.00;;
2998;SDS011;1509;51.964;7.628;2024-01-06T05:02:56;10.57;;;5.37;;
2998;SDS011;1509;51.964;7.628;2024-01-06T05:05:22;10.77;;;5.40;;
2998;SDS011;1509;51.964;7.628;2024-01-06T05:07:47;6.67;;;4.20;;
2998;SDS011;1509;51.964;7.628;2024-01-06T05:10:13;9.30;;;4.47;;
2998;SDS011;1509;51.964;7.628;2024-01-06T05:12:39;8.50;;;4.47;;
2998;SDS011;1509;51.964;7.628;2024-01-06T05:15:04;10.00;;;4.60;;
2998;SDS011;1509;51.964;7.628;2024-01-06T05:17:30;10.50;;;5.30;;
2998;SDS011;1509;51.964;7.628;2024-01-06T05:19:56;8.50;;;5.57;;
2998;SDS011;1509;51.964;7.628;2024-01-06T05:22:22;9.80;;;6.13;;
2998;SDS011;1509;51.964;7.628;2024-01-06T05:24:47;10.93;;;5.30;;
2998;SDS011;1509;51.964;7.628;2024-01-06T05:27:13;15.73;;;6.63;;
2998;SDS011;1509;51.964;7.628;2024-01-06T05:29:38;15.27;;;7.33;;
2998;SDS011;1509;51.964;7.628;2024-01-06T05:32:04;17.70;;;7.93;;
2998;SDS011;1509;51.964;7.628;2024-01-06T05:34:30;13.20;;;6.73;;
2998;SDS011;1509;51.964;7.628;2024-01-06T05:36:55;11.73;;;6.77;;
2998;SDS011;1509;51.964;7.628;2024-01-06T05:39:21;17.03;;;8.43;;
2998;SDS011;1509;51.964;7.628;2024-01-06T05:41:47;20.53;;;8.10;;
2998;SDS011;1509;51.964;7.628;2024-01-06T05:44:12;17.20;;;7.80;;
2998;SDS011;1509;51.964;7.628;2024-01-06T05:46:38;12.23;;;7.80;;
2998;SDS011;1509;51.964;7.628;2024-01-06T05:49:04;16.10;;;7.30;;
2998;SDS011;1509;51.964;7.628;2024-01-06T05:51:29;15.20;;;7.73;;
2998;SDS011;1509;51.964;7.628;2024-01-06T05:53:55;12.77;;;6.97;;
2998;SDS011;1509;51.964;7.628;2024-01-06T05:56:24;16.43;;;7.93;;
2998;SDS011;1509;51.964;7.628;2024-01-06T05:58:50;13.50;;;6.60;;
2998;SDS011;1509;51.964;7.628;2024-01-06T06:01:16;19.87;;;7.23;;
2998;SDS011;1509;51.964;7.628;2024-01-06T06:03:43;9.53;;;7.07;;
2998;SDS011;1509;51.964;7.628;2024-01-06T06:06:09;14.70;;;6.07;;
2998;SDS011;1509;51.964;7.628;2024-01-06T06:08:34;12.60;;;6.07;;
2998;SDS011;1509;51.964;7.628;2024-01-06T06:11:00;10.37;;;5.93;;
2998;SDS011;1509;51.964;7.628;2024-01-06T06:13:29;11.60;;;5.33;;
2998;SDS011;1509;51.964;7.628;2024-01-06T06:15:55;12.40;;;6.83;;
2998;SDS011;1509;51.964;7.628;2024-01-06T06:18:20;12.77;;;7.23;;
2998;SDS011;1509;51.964;7.628;2024-01-06T06:20:46;11.27;;;6.23;;
2998;SDS011;1509;51.964;7.628;2024-01-06T06:23:12;12.03;;;6.53;;
2998;SDS011;1509;51.964;7.628;2024-01-06T06:25:38;14.50;;;6.80;;
2998;SDS011;1509;51.964;7.628;2024-01-06T06:28:04;10.07;;;6.30;;
2998;SDS011;1509;51.964;7.628;2024-01-06T06:30:30;14.10;;;6.50;;
2998;SDS011;1509;51.964;7.628;2024-01-06T06:32:55;15.73;;;8.00;;
2998;SDS011;1509;51.964;7.628;2024-01-06T06:35:21;14.83;;;8.00;;
2998;SDS011;1509;51.964;7.628;2024-01-06T06:37:48;10.67;;;6.70;;
2998;SDS011;1509;51.964;7.628;2024-01-06T06:40:14;14.57;;;7.87;;
2998;SDS011;1509;51.964;7.628;2024-01-06T06:42:39;15.37;;;7.80;;
2998;SDS011;1509;51.964;7.628;2024-01-06T06:45:05;17.60;;;8.77;;
2998;SDS011;1509;51.964;7.628;2024-01-06T06:47:31;13.43;;;7.80;;
2998;SDS011;1509;51.964;7.628;2024-01-06T06:49:56;15.00;;;7.93;;
2998;SDS011;1509;51.964;7.628;2024-01-06T06:52:22;19.57;;;7.70;;
2998;SDS011;1509;51.964;7.628;2024-01-06T06:54:47;18.00;;;7.10;;
2998;SDS011;1509;51.964;7.628;2024-01-06T06:57:14;11.83;;;6.80;;
2998;SDS011;1509;51.964;7.628;2024-01-06T06:59:40;15.10;;;7.87;;
2998;SDS011;1509;51.964;7.628;2024-01-06T07:02:06;11.40;;;6.90;;
2998;SDS011;1509;51.964;7.628;2024-01-06T07:04:32;13.93;;;7.70;;
2998;SDS011;1509;51.964;7.628;2024-01-06T07:06:57;12.53;;;7.57;;
2998;SDS011;1509;51.964;7.628;2024-01-06T07:09:25;13.33;;;7.13;;
2998;SDS011;1509;51.964;7.628;2024-01-06T07:11:51;11.10;;;7.03;;
2998;SDS011;1509;51.964;7.628;2024-01-06T07:14:17;12.03;;;7.50;;
2998;SDS011;1509;51.964;7.628;2024-01-06T07:16:42;13.30;;;7.60;;
2998;SDS011;1509;51.964;7.628;2024-01-06T07:19:08;16.60;;;8.23;;
2998;SDS011;1509;51.964;7.628;2024-01-06T07:21:34;13.33;;;6.70;;
2998;SDS011;1509;51.964;7.628;2024-01-06T07:24:00;12.63;;;7.77;;
2998;SDS011;1509;51.964;7.628;2024-01-06T07:26:28;14.80;;;7.63;;
2998;SDS011;1509;51.964;7.628;2024-01-06T07:28:54;13.57;;;8.50;;
2998;SDS011;1509;51.964;7.628;2024-01-06T07:31:20;14.50;;;9.70;;
2998;SDS011;1509;51.964;7.628;2024-01-06T07:33:46;15.53;;;9.50;;
2998;SDS011;1509;51.964;7.628;2024-01-06T07:36:11;14.60;;;7.53;;
2998;SDS011;1509;51.964;7.628;2024-01-06T07:38:37;18.03;;;8.20;;
2998;SDS011;1509;51.964;7.628;2024-01-06T07:41:02;11.77;;;7.50;;
2998;SDS011;1509;51.964;7.628;2024-01-06T07:43:29;11.90;;;6.47;;
2998;SDS011;1509;51.964;7.628;2024-01-06T07:45:55;18.53;;;8.87;;
2998;SDS011;1509;51.964;7.628;2024-01-06T07:48:21;15.67;;;7.70;;
2998;SDS011;1509;51.964;7.628;2024-01-06T07:50:47;15.87;;;7.33;;
2998;SDS011;1509;51.964;7.628;2024-01-06T07:53:12;22.93;;;8.80;;
2998;SDS011;1509;51.964;7.628;2024-01-06T07:55:39;19.57;;;9.00;;
2998;SDS011;1509;51.964;7.628;2024-01-06T07:58:05;17.33;;;7.90;;
2998;SDS011;1509;51.964;7.628;2024-01-06T08:00:31;19.30;;;8.07;;
2998;SDS011;1509;51.964;7.628;2024-01-06T08:02:56;14.67;;;8.60;;
2998;SDS011;1509;51.964;7.628;2024-01-06T08:05:22;15.80;;;7.40;;
2998;SDS011;1509;51.964;7.628;2024-01-06T08:07:48;17.43;;;7.97;;
2998;SDS011;1509;51.964;7.628;2024-01-06T08:10:16;15.63;;;8.30;;
2998;SDS011;1509;51.964;7.628;2024-01-06T08:12:41;19.23;;;6.70;;
2998;SDS011;1509;51.964;7.628;2024-01-06T08:15:07;13.27;;;7.70;;
2998;SDS011;1509;51.964;7.628;2024-01-06T08:17:34;17.50;;;8.37;;
2998;SDS011;1509;51.964;7.628;2024-01-06T08:20:00;19.30;;;8.60;;
2998;SDS011;1509;51.964;7.628;2024-01-06T08:22:26;18.23;;;8.83;;
2998;SDS011;1509;51.964;7.628;2024-01-06T08:24:52;14.80;;;8.40;;
2998;SDS011;1509;51.964;7.628;2024-01-06T08:27:17;21.20;;;9.93;;
2998;SDS011;1509;51.964;7.628;2024-01-06T08:29:43;16.40;;;8.30;;
2998;SDS011;1509;51.964;7.628;2024-01-06T08:32:08;19.10;;;9.60;;
2998;SDS011;1509;51.964;7.628;2024-01-06T08:34:36;21.17;;;10.60;;
2998;SDS011;1509;51.964;7.628;2024-01-06T08:37:01;20.53;;;10.17;;
2998;SDS011;1509;51.964;7.628;2024-01-06T08:39:28;18.70;;;10.23;;
2998;SDS011;1509;51.964;7.628;2024-01-06T08:41:54;22.40;;;10.47;;
2998;SDS011;1509;51.964;7.628;2024-01-06T08:44:20;25.30;;;11.53;;
2998;SDS011;1509;51.964;7.628;2024-01-06T08:46:45;18.20;;;9.37;;
2998;SDS011;1509;51.964;7.628;2024-01-06T08:49:11;15.17;;;9.83;;
2998;SDS011;1509;51.964;7.628;2024-01-06T08:51:36;20.23;;;11.30;;
2998;SDS011;1509;51.964;7.628;2024-01-06T08:54:02;21.13;;;10.50;;
2998;SDS011;1509;51.964;7.628;2024-01-06T08:56:32;23.53;;;10.20;;
2998;SDS011;1509;51.964;7.628;2024-01-06T08:58:58;19.63;;;10.07;;
2998;SDS011;1509;51.964;7.628;2024-01-06T09:01:24;18.10;;;10.00;;
2998;SDS011;1509;51.964;7.628;2024-01-06T09:03:50;17.40;;;9.07;;
2998;SDS011;1509;51.964;7.628;2024-01-06T09:06:15;12.27;;;7.70;;
2998;SDS011;1509;51.964;7.628;2024-01-06T09:08:41;16.97;;;9.67;;
2998;SDS011;1509;51.964;7.628;2024-01-06T09:11:07;12.60;;;6.63;;
2998;SDS011;1509;51.964;7.628;2024-01-06T09:13:32;11.60;;;7.33;;
2998;SDS011;1509;51.964;7.628;2024-01-06T09:15:58;11.93;;;6.87;;
2998;SDS011;1509;51.964;7.628;2024-01-06T09:18:25;14.03;;;6.27;;
2998;SDS011;1509;51.964;7.628;2024-01-06T09:20:52;12.83;;;6.30;;
2998;SDS011;1509;51.964;7.628;2024-01-06T09:23:19;9.33;;;5.30;;
2998;SDS011;1509;51.964;7.628;2024-01-06T09:25:45;10.40;;;6.00;;
2998;SDS011;1509;51.964;7.628;2024-01-06T09:28:14;9.50;;;5.03;;
2998;SDS011;1509;51.964;7.628;2024-01-06T09:30:40;8.60;;;4.57;;
2998;SDS011;1509;51.964;7.628;2024-01-06T09:33:05;14.90;;;7.67;;
2998;SDS011;1509;51.964;7.628;2024-01-06T09:35:33;9.23;;;5.03;;
2998;SDS011;1509;51.964;7.628;2024-01-06T09:37:58;10.97;;;5.00;;
2998;SDS011;1509;51.964;7.628;2024-01-06T09:40:24;10.03;;;5.60;;
2998;SDS011;1509;51.964;7.628;2024-01-06T09:42:50;10.53;;;5.40;;
2998;SDS011;1509;51.964;7.628;2024-01-06T09:45:16;7.47;;;4.73;;
2998;SDS011;1509;51.964;7.628;2024-01-06T09:47:42;10.40;;;4.80;;
2998;SDS011;1509;51.964;7.628;2024-01-06T09:50:14;14.13;;;5.83;;
2998;SDS011;1509;51.964;7.628;2024-01-06T09:52:45;9.50;;;5.30;;
2998;SDS011;1509;51.964;7.628;2024-01-06T09:55:18;12.10;;;6.13;;
2998;SDS011;1509;51.964;7.628;2024-01-06T09:57:50;8.17;;;5.10;;
2998;SDS011;1509;51.964;7.628;2024-01-06T10:00:16;7.33;;;5.27;;
2998;SDS011;1509;51.964;7.628;2024-01-06T10:02:43;13.90;;;6.90;;
2998;SDS011;1509;51.964;7.628;2024-01-06T10:05:09;8.63;;;5.70;;
2998;SDS011;1509;51.964;7.628;2024-01-06T10:07:37;7.87;;;5.27;;
2998;SDS011;1509;51.964;7.628;2024-01-06T10:10:02;10.57;;;5.70;;
2998;SDS011;1509;51.964;7.628;2024-01-06T10:12:28;8.33;;;4.67;;
2998;SDS011;1509;51.964;7.628;2024-01-06T10:14:54;9.60;;;5.10;;
2998;SDS011;1509;51.964;7.628;2024-01-06T10:17:19;10.40;;;5.50;;
2998;SDS011;1509;51.964;7.628;2024-01-06T10:19:45;9.70;;;5.60;;
2998;SDS011;1509;51.964;7.628;2024-01-06T10:22:13;12.30;;;6.23;;
2998;SDS011;1509;51.964;7.628;2024-01-06T10:24:38;11.80;;;5.83;;
2998;SDS011;1509;51.964;7.628;2024-01-06T10:27:04;14.50;;;6.70;;
2998;SDS011;1509;51.964;7.628;2024-01-06T10:29:30;13.43;;;6.30;;
2998;SDS011;1509;51.964;7.628;2024-01-06T10:31:57;9.63;;;6.00;;
2998;SDS011;1509;51.964;7.628;2024-01-06T10:34:23;9.03;;;5.90;;
2998;SDS011;1509;51.964;7.628;2024-01-06T10:36:49;14.30;;;6.50;;
2998;SDS011;1509;51.964;7.628;2024-01-06T10:39:17;11.43;;;6.17;;
2998;SDS011;1509;51.964;7.628;2024-01-06T10:41:43;10.53;;;5.00;;
2998;SDS011;1509;51.964;7.628;2024-01-06T10:44:10;11.80;;;6.50;;
2998;SDS011;1509;51.964;7.628;2024-01-06T10:46:36;12.10;;;6.40;;
2998;SDS011;1509;51.964;7.628;2024-01-06T10:49:04;13.33;;;5.37;;
2998;SDS011;1509;51.964;7.628;2024-01-06T10:51:33;8.17;;;5.27;;
2998;SDS011;1509;51.964;7.628;2024-01-06T10:54:05;10.80;;;5.90;;
2998;SDS011;1509;51.964;7.628;2024-01-06T10:56:33;10.33;;;6.40;;
2998;SDS011;1509;51.964;7.628;2024-01-06T10:59:03;8.00;;;5.77;;
2998;SDS011;1509;51.964;7.628;2024-01-06T11:01:29;8.60;;;5.80;;
2998;SDS011;1509;51.964;7.628;2024-01-06T11:03:56;9.20;;;5.23;;
2998;SDS011;1509;51.964;7.628;2024-01-06T11:06:23;16.30;;;6.20;;
2998;SDS011;1509;51.964;7.628;2024-01-06T11:11:38;9.60;;;5.20;;
2998;SDS011;1509;51.964;7.628;2024-01-06T11:14:17;8.90;;;4.00;;
2998;SDS011;1509;51.964;7.628;2024-01-06T11:16:50;7.73;;;4.53;;
2998;SDS011;1509;51.964;7.628;2024-01-06T11:22:19;6.90;;;4.40;;
2998;SDS011;1509;51.964;7.628;2024-01-06T11:24:52;7.63;;;3.90;;
2998;SDS011;1509;51.964;7.628;2024-01-06T11:27:22;8.60;;;5.30;;
2998;SDS011;1509;51.964;7.628;2024-01-06T11:29:53;6.93;;;4.40;;
2998;SDS011;1509;51.964;7.628;2024-01-06T11:35:12;7.40;;;4.70;;
2998;SDS011;1509;51.964;7.628;2024-01-06T11:42:47;12.17;;;5.90;;
2998;SDS011;1509;51.964;7.628;2024-01-06T11:45:14;12.83;;;6.90;;
2998;SDS011;1509;51.964;7.628;2024-01-06T11:47:47;8.07;;;5.40;;
2998;SDS011;1509;51.964;7.628;2024-01-06T11:50:13;10.50;;;5.97;;
2998;SDS011;1509;51.964;7.628;2024-01-06T11:52:39;10.63;;;6.83;;
2998;SDS011;1509;51.964;7.628;2024-01-06T11:55:05;10.47;;;5.30;;
2998;SDS011;1509;51.964;7.628;2024-01-06T11:57:34;11.17;;;5.77;;
2998;SDS011;1509;51.964;7.628;2024-01-06T12:00:00;13.30;;;7.10;;
2998;SDS011;1509;51.964;7.628;2024-01-06T12:02:26;8.43;;;5.10;;
2998;SDS011;1509;51.964;7.628;2024-01-06T12:04:52;13.50;;;5.97;;
2998;SDS011;1509;51.964;7.628;2024-01-06T12:07:19;10.00;;;6.03;;
2998;SDS011;1509;51.964;7.628;2024-01-06T12:09:47;8.57;;;6.03;;
2998;SDS011;1509;51.964;7.628;2024-01-06T12:12:16;10.67;;;5.77;;
2998;SDS011;1509;51.964;7.628;2024-01-06T12:14:43;9.60;;;6.43;;
2998;SDS011;1509;51.964;7.628;2024-01-06T12:17:10;10.50;;;5.73;;
2998;SDS011;1509;51.964;7.628;2024-01-06T12:19:38;8.83;;;5.20;;
2998;SDS011;1509;51.964;7.628;2024-01-06T12:22:04;9.30;;;5.70;;
2998;SDS011;1509;51.964;7.628;2024-01-06T12:24:31;8.47;;;6.30;;
2998;SDS011;1509;51.964;7.628;2024-01-06T12:26:56;8.50;;;4.93;;
2998;SDS011;1509;51.964;7.628;2024-01-06T12:29:23;12.50;;;6.60;;
2998;SDS011;1509;51.964;7.628;2024-01-06T12:31:53;11.77;;;6.87;;
2998;SDS011;1509;51.964;7.628;2024-01-06T12:34:18;9.67;;;6.00;;
2998;SDS011;1509;51.964;7.628;2024-01-06T12:36:45;12.97;;;7.03;;
2998;SDS011;1509;51.964;7.628;2024-01-06T12:39:12;11.30;;;7.10;;
2998;SDS011;1509;51.964;7.628;2024-01-06T12:41:41;13.93;;;7.00;;
2998;SDS011;1509;51.964;7.628;2024-01-06T12:44:07;12.93;;;6.60;;
2998;SDS011;1509;51.964;7.628;2024-01-06T12:46:33;10.10;;;6.67;;
2998;SDS011;1509;51.964;7.628;2024-01-06T12:48:59;11.70;;;6.77;;
2998;SDS011;1509;51.964;7.628;2024-01-06T12:51:25;12.13;;;8.13;;
2998;SDS011;1509;51.964;7.628;2024-01-06T12:53:50;10.80;;;6.40;;
2998;SDS011;1509;51.964;7.628;2024-01-06T12:56:16;9.83;;;6.00;;
2998;SDS011;1509;51.964;7.628;2024-01-06T12:58:42;14.97;;;7.70;;
2998;SDS011;1509;51.964;7.628;2024-01-06T13:01:08;12.07;;;6.83;;
2998;SDS011;1509;51.964;7.628;2024-01-06T13:03:34;12.17;;;5.90;;
2998;SDS011;1509;51.964;7.628;2024-01-06T13:06:00;9.97;;;5.93;;
2998;SDS011;1509;51.964;7.628;2024-01-06T13:08:29;9.70;;;6.57;;
2998;SDS011;1509;51.964;7.628;2024-01-06T13:10:55;10.30;;;5.30;;
2998;SDS011;1509;51.964;7.628;2024-01-06T13:13:21;11.73;;;7.03;;
2998;SDS011;1509;51.964;7.628;2024-01-06T13:15:46;8.73;;;5.63;;
2998;SDS011;1509;51.964;7.628;2024-01-06T13:18:12;9.53;;;5.97;;
2998;SDS011;1509;51.964;7.628;2024-01-06T13:20:38;11.20;;;5.63;;
2998;SDS011;1509;51.964;7.628;2024-01-06T13:23:09;8.60;;;5.00;;
2998;SDS011;1509;51.964;7.628;2024-01-06T13:25:37;12.57;;;6.90;;
2998;SDS011;1509;51.964;7.628;2024-01-06T13:28:06;10.03;;;6.30;;
2998;SDS011;1509;51.964;7.628;2024-01-06T13:30:32;10.70;;;6.20;;
2998;SDS011;1509;51.964;7.628;2024-01-06T13:32:58;8.77;;;5.13;;
2998;SDS011;1509;51.964;7.628;2024-01-06T13:35:25;9.90;;;5.90;;
2998;SDS011;1509;51.964;7.628;2024-01-06T13:37:53;10.63;;;6.37;;
2998;SDS011;1509;51.964;7.628;2024-01-06T13:40:20;13.80;;;6.47;;
2998;SDS011;1509;51.964;7.628;2024-01-06T13:42:50;12.90;;;6.60;;
2998;SDS011;1509;51.964;7.628;2024-01-06T13:45:16;10.33;;;6.70;;
2998;SDS011;1509;51.964;7.628;2024-01-06T13:47:42;11.17;;;6.60;;
2998;SDS011;1509;51.964;7.628;2024-01-06T13:50:11;10.00;;;5.77;;
2998;SDS011;1509;51.964;7.628;2024-01-06T13:52:39;12.90;;;6.20;;
2998;SDS011;1509;51.964;7.628;2024-01-06T13:55:05;10.33;;;6.93;;
2998;SDS011;1509;51.964;7.628;2024-01-06T13:57:33;11.47;;;7.50;;
2998;SDS011;1509;51.964;7.628;2024-01-06T13:59:59;11.60;;;6.20;;
2998;SDS011;1509;51.964;7.628;2024-01-06T14:02:24;9.20;;;6.07;;
2998;SDS011;1509;51.964;7.628;2024-01-06T14:04:50;10.70;;;5.70;;
2998;SDS011;1509;51.964;7.628;2024-01-06T14:07:16;9.00;;;5.10;;
2998;SDS011;1509;51.964;7.628;2024-01-06T14:09:44;10.53;;;6.17;;
2998;SDS011;1509;51.964;7.628;2024-01-06T14:12:10;9.13;;;5.20;;
2998;SDS011;1509;51.964;7.628;2024-01-06T14:14:36;9.80;;;6.40;;
2998;SDS011;1509;51.964;7.628;2024-01-06T14:17:02;11.93;;;7.50;;
2998;SDS011;1509;51.964;7.628;2024-01-06T14:19:28;7.93;;;6.27;;
2998;SDS011;1509;51.964;7.628;2024-01-06T14:21:53;13.10;;;6.60;;
2998;SDS011;1509;51.964;7.628;2024-01-06T14:24:19;8.80;;;6.10;;
2998;SDS011;1509;51.964;7.628;2024-01-06T14:26:52;11.57;;;6.17;;
2998;SDS011;1509;51.964;7.628;2024-01-06T14:29:18;14.50;;;6.60;;
2998;SDS011;1509;51.964;7.628;2024-01-06T14:31:44;14.03;;;6.63;;
2998;SDS011;1509;51.964;7.628;2024-01-06T14:34:10;13.93;;;7.90;;
2998;SDS011;1509;51.964;7.628;2024-01-06T14:36:36;15.03;;;7.43;;
2998;SDS011;1509;51.964;7.628;2024-01-06T14:39:01;10.53;;;6.73;;
2998;SDS011;1509;51.964;7.628;2024-01-06T14:41:29;13.43;;;8.67;;
2998;SDS011;1509;51.964;7.628;2024-01-06T14:43:54;11.20;;;7.97;;
2998;SDS011;1509;51.964;7.628;2024-01-06T14:46:20;13.77;;;8.73;;
2998;SDS011;1509;51.964;7.628;2024-01-06T14:48:46;15.83;;;9.33;;
2998;SDS011;1509;51.964;7.628;2024-01-06T14:51:14;19.03;;;9.30;;
2998;SDS011;1509;51.964;7.628;2024-01-06T14:53:40;18.40;;;9.10;;
2998;SDS011;1509;51.964;7.628;2024-01-06T14:56:05;20.23;;;10.20;;
2998;SDS011;1509;51.964;7.628;2024-01-06T14:58:31;14.60;;;8.97;;
2998;SDS011;1509;51.964;7.628;2024-01-06T15:00:56;15.80;;;8.30;;
2998;SDS011;1509;51.964;7.628;2024-01-06T15:03:24;19.40;;;10.37;;
2998;SDS011;1509;51.964;7.628;2024-01-06T15:05:50;17.97;;;9.27;;
2998;SDS011;1509;51.964;7.628;2024-01-06T15:08:15;18.70;;;10.43;;
2998;SDS011;1509;51.964;7.628;2024-01-06T15:10:41;18.70;;;10.23;;